Time;durP1;ratioP1;P1;durP2;ratioP2;P2;SDS_P1;SDS_P2;PMS_P1;PMS_P2;Temp;Humidity;BMP_temperature;BMP_pressure;BME280_temperature;BME280_humidity;BME280_pressure;Samples;Min_cycle;Max_cycle;Signal;HPM_P1;HPM_P2
2021/10/16 15:33:26;;;;;;;;;;;9.70;96.00;;;;;;5102625;27;19923;-89
2021/10/16 15:35:51;;;;;;;;;;;9.60;97.00;;;;;;5123700;28;20007;-91
2021/10/16 15:38:18;;;;;;;;;;;9.60;97.90;;;;;;5091588;28;19999;-90
2021/10/16 15:40:44;;;;;;;;;;;9.70;98.40;;;;;;5087051;28;20334;-90
2021/10/16 15:43:09;;;;;;;;;;;9.80;98.80;;;;;;5103760;28;19916;-89
2021/10/16 15:45:35;;;;;;;;;;;9.90;99.10;;;;;;5091500;28;19908;-89
2021/10/16 15:48:00;;;;;;;;;;;9.90;99.30;;;;;;5089446;28;20384;-88
2021/10/16 15:50:29;;;;;;;;;;;10.00;99.40;;;;;;5091452;28;19916;-89
2021/10/16 15:52:56;;;;;;;;;;;10.00;99.50;;;;;;5090911;28;19912;-89
2021/10/16 15:55:22;;;;;;;;;;;10.10;99.50;;;;;;5070059;28;20383;-88
2021/10/16 15:57:49;;;;;;;;;;;10.20;99.60;;;;;;5071083;28;19909;-90
2021/10/16 16:00:15;;;;;;;;;;;10.20;99.50;;;;;;5071021;28;19908;-89
2021/10/16 16:02:40;;;;;;;;;;;10.30;99.60;;;;;;5105219;28;19958;-88
2021/10/16 16:05:06;;;;;;;;;;;10.30;99.50;;;;;;5081709;28;20374;-89
2021/10/16 16:07:32;;;;;;;;;;;10.30;99.50;;;;;;5082143;28;19923;-89
2021/10/16 16:09:57;;;;;;;;;;;10.40;99.50;;;;;;5090534;28;19931;-88
2021/10/16 16:12:23;;;;;;;;;;;10.40;99.40;;;;;;5088766;28;19946;-88
2021/10/16 16:14:48;;;;;;;;;;;10.40;99.30;;;;;;5082831;28;19956;-90
2021/10/16 16:17:14;;;;;;;;;;;10.40;99.30;;;;;;5086335;28;19908;-90
2021/10/16 16:19:40;;;;;;;;;;;10.40;99.20;;;;;;5089719;28;19927;-89
2021/10/16 16:22:06;;;;;;;;;;;10.40;99.20;;;;;;5089498;28;20004;-90
2021/10/16 16:24:31;;;;;;;;;;;10.40;99.20;;;;;;5089555;28;19948;-90
2021/10/16 16:26:57;;;;;;;;;;;10.40;99.20;;;;;;5090680;28;20284;-89
2021/10/16 16:29:23;;;;;;;;;;;10.40;99.20;;;;;;5089278;28;19909;-90
2021/10/16 16:31:48;;;;;;;;;;;10.30;99.20;;;;;;5082067;28;19931;-89
2021/10/16 16:34:14;;;;;;;;;;;10.30;99.20;;;;;;5087502;28;19920;-89
2021/10/16 16:36:40;;;;;;;;;;;10.30;99.20;;;;;;5101093;28;19908;-89
2021/10/16 16:39:06;;;;;;;;;;;10.30;99.20;;;;;;5092175;28;20041;-90
2021/10/16 16:41:31;;;;;;;;;;;10.30;99.20;;;;;;5086736;28;19999;-89
2021/10/16 16:43:57;;;;;;;;;;;10.30;99.10;;;;;;5080062;28;19920;-90
2021/10/16 16:46:22;;;;;;;;;;;10.30;99.10;;;;;;5074814;28;19912;-90
2021/10/16 16:48:49;;;;;;;;;;;10.30;99.20;;;;;;5065805;28;20368;-91
2021/10/16 16:51:15;;;;;;;;;;;10.30;99.20;;;;;;5067608;28;20289;-91
2021/10/16 16:53:41;;;;;;;;;;;10.20;99.10;;;;;;5072133;28;19909;-90
2021/10/16 16:56:06;;;;;;;;;;;10.20;99.20;;;;;;5092030;28;19913;-92
2021/10/16 16:58:32;;;;;;;;;;;10.30;99.20;;;;;;5076669;28;20272;-90
2021/10/16 17:00:58;;;;;;;;;;;10.30;99.10;;;;;;5070799;28;19913;-90
2021/10/16 17:03:23;;;;;;;;;;;10.30;99.10;;;;;;5062239;28;20387;-93
2021/10/16 17:05:49;;;;;;;;;;;10.30;99.10;;;;;;5074823;28;19916;-93
2021/10/16 17:08:14;;;;;;;;;;;10.30;99.10;;;;;;5070640;28;20004;-87
2021/10/16 17:10:40;;;;;;;;;;;10.30;99.10;;;;;;5071552;28;19935;-88
2021/10/16 17:13:06;;;;;;;;;;;10.30;99.10;;;;;;5074923;28;20368;-88
2021/10/16 17:15:32;;;;;;;;;;;10.30;99.00;;;;;;5075935;28;19962;-88
2021/10/16 17:17:59;;;;;;;;;;;10.30;99.00;;;;;;5074545;28;20347;-89
2021/10/16 17:20:28;;;;;;;;;;;10.20;98.90;;;;;;5075740;28;20372;-87
2021/10/16 17:22:54;;;;;;;;;;;10.20;98.90;;;;;;5073569;28;20277;-88
2021/10/16 17:25:20;;;;;;;;;;;10.20;99.00;;;;;;5073162;28;20319;-93
2021/10/16 17:27:46;;;;;;;;;;;10.10;99.00;;;;;;5075617;28;19915;-93
2021/10/16 17:30:12;;;;;;;;;;;10.10;99.00;;;;;;5075489;28;19953;-93
2021/10/16 17:32:38;;;;;;;;;;;10.10;99.00;;;;;;5075123;28;19924;-93
2021/10/16 17:35:06;;;;;;;;;;;10.10;99.10;;;;;;5073135;28;19935;-92
2021/10/16 17:37:32;;;;;;;;;;;10.10;99.10;;;;;;5072146;28;19912;-91
2021/10/16 17:39:57;;;;;;;;;;;10.10;99.10;;;;;;5075303;28;19915;-91
2021/10/16 17:42:23;;;;;;;;;;;10.00;99.10;;;;;;5072931;28;20384;-92
2021/10/16 17:44:48;;;;;;;;;;;10.10;99.20;;;;;;5074987;28;19945;-92
2021/10/16 17:47:14;;;;;;;;;;;10.00;99.20;;;;;;5071637;28;19999;-91
2021/10/16 17:49:40;;;;;;;;;;;10.00;99.10;;;;;;5072832;28;19912;-92
2021/10/16 17:52:05;;;;;;;;;;;10.10;99.20;;;;;;5073800;28;20415;-91
2021/10/16 17:54:32;;;;;;;;;;;10.00;99.20;;;;;;5073238;28;20001;-92
2021/10/16 17:56:58;;;;;;;;;;;10.00;99.20;;;;;;5073429;28;19970;-92
2021/10/16 17:59:23;;;;;;;;;;;9.90;99.20;;;;;;5074323;28;19913;-92
2021/10/16 18:01:49;;;;;;;;;;;9.90;99.20;;;;;;5073005;28;19912;-91
2021/10/16 18:04:15;;;;;;;;;;;9.90;99.20;;;;;;5065872;28;19913;-88
2021/10/16 18:06:40;;;;;;;;;;;9.90;99.20;;;;;;5073478;28;19986;-87
2021/10/16 18:09:06;;;;;;;;;;;9.90;99.30;;;;;;5071681;28;19924;-89
2021/10/16 18:11:32;;;;;;;;;;;9.90;99.30;;;;;;5072442;28;19917;-89
2021/10/16 18:13:57;;;;;;;;;;;9.90;99.30;;;;;;5072002;28;19912;-88
2021/10/16 18:16:23;;;;;;;;;;;9.90;99.30;;;;;;5072118;28;19924;-89
2021/10/16 18:18:49;;;;;;;;;;;9.90;99.30;;;;;;5073827;28;19913;-93
2021/10/16 18:21:14;;;;;;;;;;;9.90;99.40;;;;;;5072393;28;19938;-89
2021/10/16 18:23:40;;;;;;;;;;;9.90;99.40;;;;;;5074381;28;19909;-88
2021/10/16 18:26:05;;;;;;;;;;;9.90;99.40;;;;;;5073007;28;20279;-88
2021/10/16 18:28:31;;;;;;;;;;;9.80;99.40;;;;;;5073852;28;19912;-88
2021/10/16 18:30:56;;;;;;;;;;;9.80;99.30;;;;;;5073118;28;19920;-92
2021/10/16 18:33:22;;;;;;;;;;;9.80;99.30;;;;;;5073213;28;19924;-92
2021/10/16 18:35:48;;;;;;;;;;;9.90;99.40;;;;;;5072980;28;19912;-93
2021/10/16 18:38:13;;;;;;;;;;;9.80;99.40;;;;;;5073372;28;20353;-93
2021/10/16 18:40:39;;;;;;;;;;;9.90;99.40;;;;;;5072330;28;19958;-94
2021/10/16 18:43:05;;;;;;;;;;;9.80;99.30;;;;;;5072378;28;20027;-87
2021/10/16 18:45:31;;;;;;;;;;;9.80;99.30;;;;;;5073879;28;20372;-87
2021/10/16 18:47:57;;;;;;;;;;;9.80;99.30;;;;;;5071534;28;19920;-88
2021/10/16 18:50:22;;;;;;;;;;;9.80;99.30;;;;;;5074222;28;19908;-94
2021/10/16 18:52:48;;;;;;;;;;;9.80;99.30;;;;;;5071865;28;19915;-95
2021/10/16 20:10:54;;;;;;;;;;;8.20;97.60;;;;;;5113187;27;19913;-94
